createdAt,value
2023-01-06T00:01:27.203Z,10.87
2023-01-06T00:03:30.719Z,10.86
2023-01-06T00:05:35.253Z,10.89
2023-01-06T00:07:39.384Z,10.84
2023-01-06T00:09:42.768Z,10.86
2023-01-06T00:11:46.395Z,10.86
2023-01-06T00:13:50.525Z,10.86
2023-01-06T00:15:55.644Z,10.85
2023-01-06T00:18:00.599Z,10.89
2023-01-06T00:20:04.149Z,10.87
2023-01-06T00:22:08.339Z,10.89
2023-01-06T00:24:12.926Z,10.90
2023-01-06T00:26:17.479Z,10.90
2023-01-06T00:28:23.028Z,10.90
2023-01-06T00:30:26.940Z,10.90
2023-01-06T00:32:30.058Z,10.90
2023-01-06T00:34:36.416Z,10.91
2023-01-06T00:36:40.858Z,10.93
2023-01-06T00:38:46.012Z,10.90
2023-01-06T00:40:49.554Z,10.93
2023-01-06T00:42:53.172Z,10.94
2023-01-06T00:44:56.420Z,10.87
2023-01-06T00:47:00.066Z,10.87
2023-01-06T00:49:07.231Z,10.86
2023-01-06T00:51:12.963Z,10.90
2023-01-06T00:53:16.942Z,10.88
2023-01-06T00:55:20.190Z,10.87
2023-01-06T00:57:24.041Z,10.87
2023-01-06T00:59:28.361Z,10.89
2023-01-06T01:01:31.749Z,10.87
2023-01-06T01:03:35.635Z,10.84
2023-01-06T01:05:39.012Z,10.84
2023-01-06T01:07:43.829Z,10.86
2023-01-06T01:09:47.210Z,10.85
2023-01-06T01:12:09.404Z,10.87
2023-01-06T01:14:13.896Z,10.87
2023-01-06T01:16:17.880Z,10.87
2023-01-06T01:18:21.180Z,10.86
2023-01-06T01:20:24.704Z,10.87
2023-01-06T01:22:30.866Z,10.85
2023-01-06T01:24:35.749Z,10.86
2023-01-06T01:26:39.055Z,10.82
2023-01-06T01:28:42.546Z,10.81
2023-01-06T01:30:46.371Z,10.81
2023-01-06T01:32:50.207Z,10.80
2023-01-06T01:34:53.626Z,10.80
2023-01-06T01:36:58.462Z,10.80
2023-01-06T01:39:03.675Z,10.78
2023-01-06T01:41:08.741Z,10.74
2023-01-06T01:43:13.572Z,10.75
2023-01-06T01:45:23.801Z,10.74
2023-01-06T01:47:38.520Z,10.72
2023-01-06T01:49:43.483Z,10.70
2023-01-06T01:51:50.463Z,10.68
2023-01-06T01:53:58.572Z,10.68
2023-01-06T01:56:05.333Z,10.66
2023-01-06T01:58:11.967Z,10.63
2023-01-06T02:00:16.385Z,10.58
2023-01-06T02:02:20.132Z,10.57
2023-01-06T02:04:24.730Z,10.55
2023-01-06T02:06:29.716Z,10.54
2023-01-06T02:08:36.889Z,10.51
2023-01-06T02:10:40.620Z,10.48
2023-01-06T02:12:45.008Z,10.48
2023-01-06T02:14:50.559Z,10.47
2023-01-06T02:17:08.986Z,10.47
2023-01-06T02:19:29.671Z,10.48
2023-01-06T02:21:43.337Z,10.45
2023-01-06T02:24:18.724Z,10.45
2023-01-06T02:26:52.435Z,10.47
2023-01-06T02:29:28.673Z,10.44
2023-01-06T02:31:43.891Z,10.40
2023-01-06T02:33:52.210Z,10.41
2023-01-06T02:36:34.258Z,10.39
2023-01-06T02:38:47.049Z,10.37
2023-01-06T02:41:00.467Z,10.36
2023-01-06T02:43:13.917Z,10.36
2023-01-06T02:45:20.899Z,10.36
2023-01-06T02:47:32.205Z,10.39
2023-01-06T02:49:43.931Z,10.38
2023-01-06T02:51:52.559Z,10.37
2023-01-06T02:54:08.481Z,10.38
2023-01-06T02:56:13.108Z,10.36
2023-01-06T02:58:24.668Z,10.36
2023-01-06T03:00:32.111Z,10.37
2023-01-06T03:02:37.815Z,10.36
2023-01-06T03:04:45.463Z,10.37
2023-01-06T03:06:52.615Z,10.38
2023-01-06T03:08:57.034Z,10.37
2023-01-06T03:11:02.716Z,10.39
2023-01-06T03:13:10.855Z,10.38
2023-01-06T03:15:14.494Z,10.34
2023-01-06T03:17:18.484Z,10.32
2023-01-06T03:19:25.729Z,10.31
2023-01-06T03:21:34.816Z,10.32
2023-01-06T03:23:40.132Z,10.31
2023-01-06T03:25:44.689Z,10.32
2023-01-06T03:27:49.046Z,10.33
2023-01-06T03:29:52.759Z,10.33
2023-01-06T03:32:04.654Z,10.32
2023-01-06T03:34:13.134Z,10.32
2023-01-06T03:36:24.846Z,10.32
2023-01-06T03:38:37.151Z,10.30
2023-01-06T03:40:43.643Z,10.25
2023-01-06T03:43:08.974Z,10.13
2023-01-06T03:45:26.707Z,10.07
2023-01-06T03:47:39.531Z,10.05
2023-01-06T03:49:47.225Z,10.09
2023-01-06T03:51:57.937Z,10.11
2023-01-06T03:54:05.684Z,10.09
2023-01-06T03:56:18.534Z,10.07
2023-01-06T03:58:22.771Z,10.06
2023-01-06T04:00:29.686Z,10.03
2023-01-06T04:02:38.564Z,9.98
2023-01-06T04:04:42.355Z,9.93
2023-01-06T04:06:47.485Z,9.90
2023-01-06T04:08:52.530Z,9.85
2023-01-06T04:10:58.095Z,9.80
2023-01-06T04:13:00.387Z,9.77
2023-01-06T04:15:10.950Z,9.68
2023-01-06T04:17:14.683Z,9.64
2023-01-06T04:19:19.294Z,9.62
2023-01-06T04:21:23.242Z,9.60
2023-01-06T04:23:26.720Z,9.61
2023-01-06T04:25:31.629Z,9.63
2023-01-06T04:27:38.362Z,9.64
2023-01-06T04:29:44.473Z,9.68
2023-01-06T04:31:49.538Z,9.62
2023-01-06T04:33:53.189Z,9.60
2023-01-06T04:35:56.884Z,9.55
2023-01-06T04:38:02.717Z,9.55
2023-01-06T04:40:08.795Z,9.56
2023-01-06T04:42:13.491Z,9.59
2023-01-06T04:44:17.020Z,9.62
2023-01-06T04:46:20.359Z,9.63
2023-01-06T04:48:24.277Z,9.65
2023-01-06T04:50:27.567Z,9.65
2023-01-06T04:52:31.706Z,9.67
2023-01-06T04:54:35.393Z,9.70
2023-01-06T04:56:39.615Z,9.70
2023-01-06T04:58:44.582Z,9.67
2023-01-06T05:00:47.960Z,9.67
2023-01-06T05:02:52.393Z,9.73
2023-01-06T05:04:55.656Z,9.73
2023-01-06T05:07:01.099Z,9.74
2023-01-06T05:09:04.516Z,9.79
2023-01-06T05:11:09.455Z,9.81
2023-01-06T05:13:12.656Z,9.84
2023-01-06T05:15:17.692Z,9.82
2023-01-06T05:17:22.133Z,9.79
2023-01-06T05:19:25.759Z,9.74
2023-01-06T05:21:32.643Z,9.77
2023-01-06T05:23:38.073Z,9.79
2023-01-06T05:25:41.220Z,9.77
2023-01-06T05:27:44.501Z,9.76
2023-01-06T05:29:49.214Z,9.75
2023-01-06T05:31:53.857Z,9.75
2023-01-06T05:33:58.198Z,9.75
2023-01-06T05:36:03.758Z,9.77
2023-01-06T05:38:07.152Z,9.76
2023-01-06T05:40:12.374Z,9.83
2023-01-06T05:42:17.642Z,9.87
2023-01-06T05:44:21.034Z,9.90
2023-01-06T05:46:24.414Z,9.91
2023-01-06T05:48:29.537Z,9.96
2023-01-06T05:50:32.927Z,9.94
2023-01-06T05:52:36.219Z,9.86
2023-01-06T05:54:40.440Z,9.88
2023-01-06T05:56:43.838Z,9.91
2023-01-06T05:58:48.900Z,9.91
2023-01-06T06:00:52.183Z,9.86
2023-01-06T06:02:56.586Z,9.88
2023-01-06T06:05:01.439Z,9.90
2023-01-06T06:07:04.710Z,9.94
2023-01-06T06:09:08.324Z,9.98
2023-01-06T06:11:13.208Z,10.06
2023-01-06T06:13:16.656Z,10.11
2023-01-06T06:15:20.349Z,10.18
2023-01-06T06:17:24.326Z,10.22
2023-01-06T06:19:27.612Z,10.26
2023-01-06T06:21:32.483Z,10.29
2023-01-06T06:23:36.058Z,10.30
2023-01-06T06:25:39.577Z,10.36
2023-01-06T06:27:43.028Z,10.35
2023-01-06T06:29:48.189Z,10.38
2023-01-06T06:31:51.558Z,10.40
2023-01-06T06:33:56.560Z,10.46
2023-01-06T06:36:00.523Z,10.47
2023-01-06T06:38:05.616Z,10.50
2023-01-06T06:40:09.892Z,10.50
2023-01-06T06:42:13.376Z,10.51
2023-01-06T06:44:16.813Z,10.51
2023-01-06T06:46:20.489Z,10.52
2023-01-06T06:48:23.855Z,10.52
2023-01-06T06:50:27.568Z,10.54
2023-01-06T06:52:31.015Z,10.59
2023-01-06T06:54:35.917Z,10.60
2023-01-06T06:56:39.447Z,10.57
2023-01-06T06:58:43.243Z,10.55
2023-01-06T07:00:47.938Z,10.54
2023-01-06T07:02:53.669Z,10.55
2023-01-06T07:04:57.402Z,10.60
2023-01-06T07:07:01.164Z,10.58
2023-01-06T07:09:05.911Z,10.62
2023-01-06T07:11:11.332Z,10.61
2023-01-06T07:13:17.148Z,10.62
2023-01-06T07:15:20.445Z,10.59
2023-01-06T07:17:27.555Z,10.54
2023-01-06T07:19:30.636Z,10.53
2023-01-06T07:21:33.752Z,10.50
2023-01-06T07:23:36.879Z,10.51
2023-01-06T07:25:39.958Z,10.49
2023-01-06T07:27:44.351Z,10.53
2023-01-06T07:29:49.777Z,10.53
2023-01-06T07:31:52.847Z,10.54
2023-01-06T07:33:55.961Z,10.55
2023-01-06T07:35:59.330Z,10.53
2023-01-06T07:38:06.186Z,10.53
2023-01-06T07:40:10.250Z,10.53
2023-01-06T07:42:13.772Z,10.52
2023-01-06T07:44:18.228Z,10.52
2023-01-06T07:46:21.338Z,10.51
2023-01-06T07:48:24.547Z,10.54
2023-01-06T07:50:27.956Z,10.52
2023-01-06T07:52:31.496Z,10.52
2023-01-06T07:54:34.783Z,10.54
2023-01-06T07:56:37.962Z,10.55
2023-01-06T07:58:41.030Z,10.54
2023-01-06T08:00:45.793Z,10.55
2023-01-06T08:02:49.269Z,10.60
2023-01-06T08:04:52.405Z,10.59
2023-01-06T08:06:55.576Z,10.61
2023-01-06T08:08:58.704Z,10.62
2023-01-06T08:11:01.839Z,10.59
2023-01-06T08:13:04.923Z,10.55
2023-01-06T08:15:09.459Z,10.54
2023-01-06T08:17:14.211Z,10.56
2023-01-06T08:19:17.550Z,10.53
2023-01-06T08:21:20.611Z,10.52
2023-01-06T08:23:23.737Z,10.54
2023-01-06T08:25:26.875Z,10.60
2023-01-06T08:27:29.982Z,10.62
2023-01-06T08:29:33.069Z,10.64
2023-01-06T08:31:36.304Z,10.67
2023-01-06T08:33:41.256Z,10.69
2023-01-06T08:35:47.463Z,10.72
2023-01-06T08:37:50.624Z,10.74
2023-01-06T08:39:53.759Z,10.78
2023-01-06T08:41:56.933Z,10.81
2023-01-06T08:44:00.020Z,10.85
2023-01-06T08:46:05.186Z,10.88
2023-01-06T08:48:08.447Z,10.90
2023-01-06T08:50:13.133Z,10.91
2023-01-06T08:52:16.156Z,10.95
2023-01-06T08:54:19.235Z,10.97
2023-01-06T08:56:23.547Z,11.01
2023-01-06T08:58:27.057Z,11.04
2023-01-06T09:00:30.256Z,11.09
2023-01-06T09:02:33.341Z,11.10
2023-01-06T09:04:36.602Z,11.14
2023-01-06T09:06:43.473Z,11.18
2023-01-06T09:08:48.531Z,11.23
2023-01-06T09:10:52.085Z,11.26
2023-01-06T09:12:55.287Z,11.28
2023-01-06T09:14:58.451Z,11.28
2023-01-06T09:17:01.496Z,11.31
2023-01-06T09:19:04.583Z,11.33
2023-01-06T09:21:07.932Z,11.35
2023-01-06T09:23:12.544Z,11.39
2023-01-06T09:25:15.705Z,11.42
2023-01-06T09:27:18.744Z,11.44
2023-01-06T09:29:21.831Z,11.46
2023-01-06T09:31:24.902Z,11.49
2023-01-06T09:33:28.006Z,11.50
2023-01-06T09:35:31.200Z,11.53
2023-01-06T09:37:34.394Z,11.58
2023-01-06T09:39:39.553Z,11.62
2023-01-06T09:42:01.557Z,11.68
2023-01-06T09:44:11.286Z,11.71
2023-01-06T09:46:17.034Z,11.75
2023-01-06T09:48:23.008Z,11.78
2023-01-06T09:50:31.347Z,11.84
2023-01-06T09:52:37.042Z,11.93
2023-01-06T09:54:46.425Z,11.99
2023-01-06T09:56:54.604Z,12.04
2023-01-06T09:59:05.566Z,12.08
2023-01-06T10:01:12.513Z,12.12
2023-01-06T10:03:17.100Z,12.11
2023-01-06T10:05:21.759Z,12.11
2023-01-06T10:07:30.380Z,12.11
2023-01-06T10:09:38.543Z,12.11
2023-01-06T10:11:53.498Z,12.04
2023-01-06T10:14:05.978Z,12.04
2023-01-06T10:16:21.595Z,12.07
2023-01-06T10:18:32.796Z,12.12
2023-01-06T10:20:54.516Z,12.16
2023-01-06T10:23:01.402Z,12.13
2023-01-06T10:25:08.148Z,12.16
2023-01-06T10:27:22.848Z,12.21
2023-01-06T10:29:31.729Z,12.26
2023-01-06T10:31:36.056Z,12.31
2023-01-06T10:33:42.789Z,12.31
2023-01-06T10:35:45.890Z,12.25
2023-01-06T10:37:50.343Z,12.23
2023-01-06T10:40:00.403Z,12.21
2023-01-06T10:42:29.096Z,12.22
2023-01-06T10:44:33.517Z,12.26
2023-01-06T10:46:37.538Z,12.31
2023-01-06T10:48:41.073Z,12.30
2023-01-06T10:50:44.502Z,12.36
2023-01-06T10:52:49.183Z,12.36
2023-01-06T10:54:56.591Z,12.42
2023-01-06T10:57:03.929Z,12.46
2023-01-06T10:59:09.240Z,12.46
2023-01-06T11:01:16.048Z,12.47
2023-01-06T11:03:32.801Z,12.48
2023-01-06T11:05:37.114Z,12.47
2023-01-06T11:07:47.215Z,12.44
2023-01-06T11:09:51.380Z,12.42
2023-01-06T11:11:57.071Z,12.43
2023-01-06T11:14:04.776Z,12.43
2023-01-06T11:16:18.181Z,12.42
2023-01-06T11:18:26.101Z,12.40
2023-01-06T11:20:31.776Z,12.42
2023-01-06T11:22:36.552Z,12.45
2023-01-06T11:24:51.577Z,12.46
2023-01-06T11:26:57.162Z,12.47
2023-01-06T11:29:20.729Z,12.45
2023-01-06T11:31:26.770Z,12.47
2023-01-06T11:33:33.039Z,12.51
2023-01-06T11:35:39.551Z,12.54
2023-01-06T11:37:46.959Z,12.57
2023-01-06T11:40:05.160Z,12.54
2023-01-06T11:42:20.583Z,12.56
2023-01-06T11:44:45.677Z,12.60
2023-01-06T11:46:54.307Z,12.58
2023-01-06T11:49:03.855Z,12.57
2023-01-06T11:51:19.839Z,12.47
2023-01-06T11:53:36.269Z,12.48
2023-01-06T11:55:57.979Z,12.51
2023-01-06T11:58:04.942Z,12.49
2023-01-06T12:00:33.256Z,12.51
2023-01-06T12:02:45.933Z,12.47
2023-01-06T12:04:54.126Z,12.51
2023-01-06T12:07:03.160Z,12.48
2023-01-06T12:09:20.873Z,12.45
2023-01-06T12:11:34.201Z,12.45
2023-01-06T12:13:44.309Z,12.51
2023-01-06T12:15:57.734Z,12.53
2023-01-06T12:18:05.266Z,12.54
2023-01-06T12:20:15.965Z,12.57
2023-01-06T12:22:28.349Z,12.60
2023-01-06T12:24:33.546Z,12.62
2023-01-06T12:26:38.079Z,12.65
2023-01-06T12:28:43.211Z,12.68
2023-01-06T12:30:51.995Z,12.70
2023-01-06T12:32:58.714Z,12.77
2023-01-06T12:35:04.458Z,12.79
2023-01-06T12:37:18.873Z,12.81
2023-01-06T12:39:28.152Z,12.84
2023-01-06T12:41:36.526Z,12.85
2023-01-06T12:43:42.287Z,12.88
2023-01-06T12:45:57.230Z,12.91
2023-01-06T12:48:02.595Z,12.94
2023-01-06T12:50:09.361Z,12.95
2023-01-06T12:52:17.901Z,12.95
2023-01-06T12:54:27.037Z,12.96
2023-01-06T12:56:42.368Z,12.95
2023-01-06T12:58:51.646Z,12.98
2023-01-06T13:00:58.807Z,12.99
2023-01-06T13:03:22.415Z,12.98
2023-01-06T13:05:38.580Z,12.95
2023-01-06T13:07:48.712Z,12.97
2023-01-06T13:09:59.735Z,12.97
2023-01-06T13:12:13.814Z,12.97
2023-01-06T13:14:26.063Z,12.97
2023-01-06T13:16:34.090Z,13.04
2023-01-06T13:18:41.893Z,13.07
2023-01-06T13:20:47.042Z,13.11
2023-01-06T13:22:58.010Z,13.12
2023-01-06T13:25:13.925Z,13.07
2023-01-06T13:27:29.768Z,13.05
2023-01-06T13:29:42.226Z,13.05
2023-01-06T13:32:21.782Z,13.06
2023-01-06T13:34:41.768Z,13.06
2023-01-06T13:37:06.497Z,13.01
2023-01-06T13:39:14.452Z,13.02
2023-01-06T13:41:20.423Z,13.04
2023-01-06T13:43:25.567Z,12.99
2023-01-06T13:45:31.165Z,12.95
2023-01-06T13:47:34.794Z,12.88
2023-01-06T13:49:38.667Z,12.86
2023-01-06T13:51:44.201Z,12.85
2023-01-06T13:53:50.331Z,12.85
2023-01-06T13:56:26.849Z,12.83
2023-01-06T13:58:38.107Z,12.81
2023-01-06T14:00:44.598Z,12.78
2023-01-06T14:03:27.859Z,12.79
2023-01-06T14:05:54.390Z,12.80
2023-01-06T14:07:59.748Z,12.81
2023-01-06T14:10:03.825Z,12.80
2023-01-06T14:12:09.518Z,12.78
2023-01-06T14:14:24.997Z,12.77
2023-01-06T14:16:42.650Z,12.74
2023-01-06T14:18:51.286Z,12.74
2023-01-06T14:21:01.497Z,12.75
2023-01-06T14:23:06.784Z,12.72
2023-01-06T14:25:23.379Z,12.71
2023-01-06T14:28:03.636Z,12.68
2023-01-06T14:30:21.491Z,12.65
2023-01-06T14:33:00.124Z,12.63
2023-01-06T14:35:05.151Z,12.60
2023-01-06T14:37:13.144Z,12.60
2023-01-06T14:39:22.741Z,12.57
2023-01-06T14:41:28.573Z,12.57
2023-01-06T14:43:46.652Z,12.54
2023-01-06T14:45:52.551Z,12.55
2023-01-06T14:47:57.783Z,12.54
2023-01-06T14:50:03.707Z,12.53
2023-01-06T14:52:10.503Z,12.47
2023-01-06T14:54:20.614Z,12.47
2023-01-06T14:56:25.285Z,12.45
2023-01-06T14:58:29.516Z,12.47
2023-01-06T15:00:33.498Z,12.44
2023-01-06T15:02:39.013Z,12.43
2023-01-06T15:04:43.699Z,12.41
2023-01-06T15:06:57.396Z,12.41
2023-01-06T15:09:14.596Z,12.42
2023-01-06T15:11:22.913Z,12.39
2023-01-06T15:13:29.917Z,12.39
2023-01-06T15:15:34.531Z,12.38
2023-01-06T15:17:39.081Z,12.39
2023-01-06T15:19:44.177Z,12.39
2023-01-06T15:21:48.358Z,12.39
2023-01-06T15:23:53.042Z,12.37
2023-01-06T15:25:57.442Z,12.35
2023-01-06T15:28:00.441Z,12.37
2023-01-06T15:30:03.566Z,12.37
2023-01-06T15:32:08.186Z,12.36
2023-01-06T15:34:15.842Z,12.36
2023-01-06T15:36:21.797Z,12.33
2023-01-06T15:38:26.780Z,12.32
2023-01-06T15:40:30.205Z,12.33
2023-01-06T15:42:36.093Z,12.33
2023-01-06T15:44:40.135Z,12.32
2023-01-06T15:46:43.478Z,12.34
2023-01-06T15:48:48.861Z,12.32
2023-01-06T15:50:53.618Z,12.32
2023-01-06T15:53:00.077Z,12.31
2023-01-06T15:55:07.091Z,12.31
2023-01-06T15:57:16.543Z,12.32
2023-01-06T15:59:21.579Z,12.30
2023-01-06T16:01:25.478Z,12.31
2023-01-06T16:03:30.301Z,12.32
2023-01-06T16:05:39.690Z,12.32
2023-01-06T16:07:46.817Z,12.31
2023-01-06T16:09:50.090Z,12.30
2023-01-06T16:11:56.719Z,12.29
2023-01-06T16:14:00.134Z,12.28
2023-01-06T16:16:05.793Z,12.29
2023-01-06T16:18:10.123Z,12.29
2023-01-06T16:20:24.363Z,12.29
2023-01-06T16:22:32.613Z,12.29
2023-01-06T16:24:37.318Z,12.27
2023-01-06T16:26:43.677Z,12.28
2023-01-06T16:28:49.161Z,12.27
2023-01-06T16:31:05.851Z,12.27
2023-01-06T16:33:35.707Z,12.26
2023-01-06T16:35:39.997Z,12.26
2023-01-06T16:37:43.472Z,12.23
2023-01-06T16:39:48.325Z,12.25
2023-01-06T16:42:40.676Z,12.23
2023-01-06T16:44:43.809Z,12.21
2023-01-06T16:46:46.961Z,12.21
2023-01-06T16:48:51.699Z,12.19
2023-01-06T16:50:56.390Z,12.18
2023-01-06T16:53:03.195Z,12.18
2023-01-06T16:55:13.065Z,12.19
2023-01-06T16:57:16.082Z,12.17
2023-01-06T16:59:20.527Z,12.16
2023-01-06T17:01:26.116Z,12.15
2023-01-06T17:03:31.078Z,12.11
2023-01-06T17:05:37.929Z,12.10
2023-01-06T17:07:41.104Z,12.11
2023-01-06T17:09:44.354Z,12.08
2023-01-06T17:11:49.262Z,12.06
2023-01-06T17:13:53.895Z,12.04
2023-01-06T17:16:00.363Z,12.03
2023-01-06T17:18:03.405Z,12.03
2023-01-06T17:20:11.561Z,12.04
2023-01-06T17:22:23.161Z,12.02
2023-01-06T17:24:27.261Z,11.99
2023-01-06T17:26:30.812Z,11.98
2023-01-06T17:28:35.731Z,11.98
2023-01-06T17:30:40.030Z,11.98
2023-01-06T17:32:44.879Z,11.96
2023-01-06T17:34:51.158Z,11.93
2023-01-06T17:36:56.797Z,11.92
2023-01-06T17:38:59.768Z,11.92
2023-01-06T17:41:03.051Z,11.89
2023-01-06T17:43:11.422Z,11.88
2023-01-06T17:45:25.658Z,11.86
2023-01-06T17:47:30.469Z,11.85
2023-01-06T17:49:37.006Z,11.84
2023-01-06T17:51:41.313Z,11.82
2023-01-06T17:54:01.850Z,11.80
2023-01-06T17:56:06.739Z,11.76
2023-01-06T17:58:12.629Z,11.75
2023-01-06T18:00:24.875Z,11.75
2023-01-06T18:02:38.714Z,11.72
2023-01-06T18:04:41.971Z,11.71
2023-01-06T18:06:52.602Z,11.71
2023-01-06T18:09:01.859Z,11.69
2023-01-06T18:11:29.147Z,11.70
2023-01-06T18:13:35.738Z,11.67
2023-01-06T18:15:40.264Z,11.68
2023-01-06T18:17:43.433Z,11.66
2023-01-06T18:19:46.536Z,11.69
2023-01-06T18:21:49.880Z,11.68
2023-01-06T18:23:53.654Z,11.65
2023-01-06T18:25:58.192Z,11.63
2023-01-06T18:28:01.787Z,11.59
2023-01-06T18:30:17.762Z,11.57
2023-01-06T18:32:27.387Z,11.54
2023-01-06T18:34:36.805Z,11.51
2023-01-06T18:36:39.898Z,11.51
2023-01-06T18:38:43.078Z,11.49
2023-01-06T18:40:46.625Z,11.49
2023-01-06T18:42:50.252Z,11.48
2023-01-06T18:45:01.176Z,11.48
2023-01-06T18:47:16.250Z,11.50
2023-01-06T18:49:20.762Z,11.48
2023-01-06T18:51:24.923Z,11.48
2023-01-06T18:53:29.698Z,11.48
2023-01-06T18:55:37.605Z,11.49
2023-01-06T18:57:45.765Z,11.49
2023-01-06T18:59:48.881Z,11.49
2023-01-06T19:01:53.452Z,11.49
2023-01-06T19:04:01.306Z,11.47
2023-01-06T19:06:32.427Z,11.49
2023-01-06T19:08:37.145Z,11.48
2023-01-06T19:10:40.430Z,11.50
2023-01-06T19:12:43.525Z,11.49
2023-01-06T19:14:48.257Z,11.50
2023-01-06T19:16:54.053Z,11.51
2023-01-06T19:19:00.412Z,11.53
2023-01-06T19:21:04.939Z,11.51
2023-01-06T19:23:17.253Z,11.53
2023-01-06T19:25:29.867Z,11.53
2023-01-06T19:27:53.898Z,11.52
2023-01-06T19:29:58.003Z,11.49
2023-01-06T19:32:04.475Z,11.47
2023-01-06T19:34:13.938Z,11.42
2023-01-06T19:36:39.235Z,11.40
2023-01-06T19:38:44.797Z,11.39
2023-01-06T19:40:48.006Z,11.41
2023-01-06T19:42:51.017Z,11.42
2023-01-06T19:44:55.473Z,11.43
2023-01-06T19:46:58.524Z,11.44
2023-01-06T19:49:01.648Z,11.48
2023-01-06T19:51:19.760Z,11.49
2023-01-06T19:53:38.957Z,11.49
2023-01-06T19:55:43.394Z,11.49
2023-01-06T19:57:49.915Z,11.47
2023-01-06T19:59:58.359Z,11.43
2023-01-06T20:02:12.905Z,11.43
2023-01-06T20:04:20.499Z,11.46
2023-01-06T20:06:24.118Z,11.45
2023-01-06T20:08:27.301Z,11.45
2023-01-06T20:10:30.615Z,11.44
2023-01-06T20:12:35.113Z,11.47
2023-01-06T20:14:38.240Z,11.48
2023-01-06T20:16:41.732Z,11.46
2023-01-06T20:18:45.041Z,11.46
2023-01-06T20:20:49.043Z,11.46
2023-01-06T20:22:52.367Z,11.45
2023-01-06T20:24:55.461Z,11.44
2023-01-06T20:26:58.510Z,11.43
2023-01-06T20:29:04.239Z,11.38
2023-01-06T20:31:07.440Z,11.32
2023-01-06T20:33:10.470Z,11.29
2023-01-06T20:35:15.246Z,11.28
2023-01-06T20:37:18.425Z,11.27
2023-01-06T20:39:22.076Z,11.27
2023-01-06T20:41:25.313Z,11.25
2023-01-06T20:43:30.220Z,11.25
2023-01-06T20:45:34.976Z,11.21
2023-01-06T20:47:38.284Z,11.21
2023-01-06T20:49:41.728Z,11.20
2023-01-06T20:51:44.810Z,11.20
2023-01-06T20:53:47.920Z,11.16
2023-01-06T20:55:51.218Z,11.15
2023-01-06T20:57:54.542Z,11.13
2023-01-06T20:59:57.677Z,11.15
2023-01-06T21:02:02.533Z,11.16
2023-01-06T21:04:05.956Z,11.16
2023-01-06T21:06:09.285Z,11.15
2023-01-06T21:08:12.364Z,11.14
2023-01-06T21:10:15.524Z,11.16
2023-01-06T21:12:18.666Z,11.17
2023-01-06T21:14:21.881Z,11.18
2023-01-06T21:16:25.062Z,11.18
2023-01-06T21:18:29.538Z,11.16
2023-01-06T21:20:32.752Z,11.18
2023-01-06T21:22:35.891Z,11.19
2023-01-06T21:24:39.043Z,11.16
2023-01-06T21:26:42.070Z,11.10
2023-01-06T21:28:45.126Z,11.06
2023-01-06T21:30:48.325Z,10.99
2023-01-06T21:32:51.557Z,11.00
2023-01-06T21:34:55.984Z,11.02
2023-01-06T21:36:58.997Z,11.01
2023-01-06T21:39:02.083Z,11.04
2023-01-06T21:41:26.450Z,11.04
2023-01-06T21:43:28.547Z,11.06
2023-01-06T21:45:31.712Z,11.06
2023-01-06T21:47:34.751Z,11.06
2023-01-06T21:49:38.056Z,11.04
2023-01-06T21:51:43.002Z,11.03
2023-01-06T21:53:46.143Z,11.04
2023-01-06T21:55:49.447Z,11.04
2023-01-06T21:57:52.666Z,11.06
2023-01-06T21:59:55.821Z,11.06
2023-01-06T22:01:59.118Z,11.08
2023-01-06T22:04:02.438Z,11.08
2023-01-06T22:06:06.399Z,11.07
2023-01-06T22:08:10.902Z,11.07
2023-01-06T22:10:15.402Z,11.09
2023-01-06T22:12:19.074Z,11.10
2023-01-06T22:14:22.458Z,11.10
2023-01-06T22:16:25.863Z,10.97
2023-01-06T22:18:29.787Z,10.88
2023-01-06T22:20:33.472Z,10.82
2023-01-06T22:22:36.739Z,10.80
2023-01-06T22:24:41.637Z,10.80
2023-01-06T22:26:44.712Z,10.80
2023-01-06T22:28:48.002Z,10.81
2023-01-06T22:30:52.732Z,10.82
2023-01-06T22:32:55.870Z,10.84
2023-01-06T22:34:58.992Z,10.84
2023-01-06T22:37:02.025Z,10.85
2023-01-06T22:39:05.270Z,10.84
2023-01-06T22:41:10.227Z,10.85
2023-01-06T22:43:13.282Z,10.87
2023-01-06T22:45:16.388Z,10.87
2023-01-06T22:47:19.530Z,10.87
2023-01-06T22:49:22.525Z,10.87
2023-01-06T22:51:27.328Z,10.87
2023-01-06T22:53:31.868Z,10.85
2023-01-06T22:55:34.886Z,10.87
2023-01-06T22:57:39.311Z,10.87
2023-01-06T22:59:42.497Z,10.87
2023-01-06T23:01:45.685Z,10.87
2023-01-06T23:04:08.999Z,10.88
2023-01-06T23:06:14.053Z,10.86
2023-01-06T23:08:17.238Z,10.86
2023-01-06T23:10:20.736Z,10.85
2023-01-06T23:12:23.937Z,10.83
2023-01-06T23:14:28.423Z,10.82
2023-01-06T23:16:31.535Z,10.82
2023-01-06T23:18:36.071Z,10.80
2023-01-06T23:20:39.219Z,10.82
2023-01-06T23:22:42.268Z,10.80
2023-01-06T23:24:45.316Z,10.80
2023-01-06T23:26:48.538Z,10.80
2023-01-06T23:28:52.853Z,10.80
2023-01-06T23:31:03.496Z,10.78
2023-01-06T23:33:06.508Z,10.78
2023-01-06T23:35:10.142Z,10.77
2023-01-06T23:37:13.398Z,10.77
2023-01-06T23:39:17.124Z,10.77
2023-01-06T23:41:21.735Z,10.77
2023-01-06T23:43:26.786Z,10.77
2023-01-06T23:45:30.474Z,10.76
2023-01-06T23:47:35.015Z,10.77
2023-01-06T23:49:38.057Z,10.75
2023-01-06T23:51:41.461Z,10.74
2023-01-06T23:53:45.513Z,10.72
2023-01-06T23:55:55.173Z,10.70
2023-01-06T23:57:58.150Z,10.69
